Terminal Aerodrome Forecast
Issued by NWS Duluth, MN

Home | Current Version | Previous Version | Text Only | Print | Product List | Glossary On
Versions: 1 2 3 4 5 6 7 8 9 10 11 12 13 14 15 16 17
600
FTUS43 KDLH 260537
TAFDLH
TAF
KDLH 260537Z 2606/2706 VRB03KT P6SM SCT090
     FM261800 28011KT P6SM SCT080
     FM270200 29003KT P6SM SKC=

USA.gov is the U.S. government's official web portal to all federal, state and local government web resources and services.